createdAt,value
2023-05-13T00:01:21.340Z,12.40
2023-05-13T00:03:49.276Z,12.90
2023-05-13T00:06:17.295Z,10.70
2023-05-13T00:08:45.381Z,10.30
2023-05-13T00:11:13.219Z,12.10
2023-05-13T00:13:40.945Z,11.80
2023-05-13T00:16:08.789Z,12.10
2023-05-13T00:18:36.703Z,12.90
2023-05-13T00:21:04.728Z,11.70
2023-05-13T00:23:33.256Z,11.50
2023-05-13T00:26:01.417Z,14.40
2023-05-13T00:28:29.336Z,9.90
2023-05-13T00:30:57.278Z,10.60
2023-05-13T00:33:25.503Z,13.00
2023-05-13T00:35:53.292Z,12.90
2023-05-13T00:38:21.036Z,12.10
2023-05-13T00:40:49.915Z,9.90
2023-05-13T00:43:18.258Z,15.40
2023-05-13T00:45:46.146Z,12.30
2023-05-13T00:48:13.963Z,16.60
2023-05-13T00:50:44.553Z,13.90
2023-05-13T00:53:13.493Z,12.10
2023-05-13T00:55:43.642Z,10.30
2023-05-13T00:58:11.774Z,14.70
2023-05-13T01:01:02.983Z,17.90
2023-05-13T01:03:50.607Z,10.20
2023-05-13T01:06:29.699Z,12.90
2023-05-13T01:09:31.018Z,12.60
2023-05-13T01:12:08.654Z,10.20
2023-05-13T01:14:52.136Z,14.50
2023-05-13T01:17:31.993Z,16.30
2023-05-13T01:20:03.844Z,11.20
2023-05-13T01:22:32.273Z,9.50
2023-05-13T01:25:00.554Z,13.10
2023-05-13T01:27:28.809Z,12.10
2023-05-13T01:29:57.393Z,9.60
2023-05-13T01:32:29.474Z,13.10
2023-05-13T01:34:58.645Z,16.80
2023-05-13T01:37:27.812Z,12.20
2023-05-13T01:39:55.976Z,18.70
2023-05-13T01:42:25.528Z,12.80
2023-05-13T01:44:54.490Z,11.70
2023-05-13T01:47:22.395Z,17.90
2023-05-13T01:49:50.884Z,12.90
2023-05-13T01:52:18.850Z,12.40
2023-05-13T01:54:46.897Z,11.30
2023-05-13T01:57:15.233Z,11.70
2023-05-13T01:59:43.021Z,10.80
2023-05-13T02:02:10.821Z,11.00
2023-05-13T02:04:38.668Z,10.50
2023-05-13T02:07:06.723Z,12.20
2023-05-13T02:09:35.784Z,15.90
2023-05-13T02:12:07.232Z,10.00
2023-05-13T02:14:35.113Z,14.70
2023-05-13T02:17:03.464Z,13.10
2023-05-13T02:19:31.342Z,14.10
2023-05-13T02:21:59.150Z,12.60
2023-05-13T02:24:26.865Z,12.00
2023-05-13T02:26:55.791Z,12.10
2023-05-13T02:29:23.886Z,16.70
2023-05-13T02:31:51.647Z,12.60
2023-05-13T02:34:19.686Z,15.40
2023-05-13T02:36:48.763Z,13.80
2023-05-13T02:39:16.653Z,12.80
2023-05-13T02:41:44.610Z,12.90
2023-05-13T02:44:12.723Z,11.60
2023-05-13T02:46:40.461Z,16.10
2023-05-13T02:49:08.280Z,13.10
2023-05-13T02:51:35.978Z,16.40
2023-05-13T02:54:06.717Z,17.20
2023-05-13T02:56:34.545Z,15.30
2023-05-13T02:59:02.398Z,11.70
2023-05-13T03:01:30.384Z,16.40
2023-05-13T03:03:58.188Z,15.10
2023-05-13T03:06:25.925Z,15.90
2023-05-13T03:08:53.689Z,21.20
2023-05-13T03:11:21.819Z,14.00
2023-05-13T03:13:49.563Z,13.10
2023-05-13T03:16:17.347Z,14.50
2023-05-13T03:18:45.314Z,13.50
2023-05-13T03:21:13.395Z,12.90
2023-05-13T03:23:41.210Z,15.00
2023-05-13T03:26:09.173Z,12.10
2023-05-13T03:28:36.965Z,11.60
2023-05-13T03:31:05.641Z,12.30
2023-05-13T03:33:35.577Z,14.10
2023-05-13T03:36:04.533Z,10.90
2023-05-13T03:38:32.962Z,12.20
2023-05-13T03:41:00.850Z,11.90
2023-05-13T03:43:29.278Z,14.10
2023-05-13T03:46:00.625Z,10.60
2023-05-13T03:48:29.130Z,11.30
2023-05-13T03:50:57.804Z,11.70
2023-05-13T03:53:26.002Z,11.80
2023-05-13T03:55:57.584Z,10.60
2023-05-13T03:58:25.372Z,12.80
2023-05-13T04:00:53.240Z,10.20
2023-05-13T04:03:21.184Z,14.10
2023-05-13T04:05:51.668Z,12.70
2023-05-13T04:08:19.491Z,13.40
2023-05-13T04:10:47.451Z,15.80
2023-05-13T04:13:15.373Z,12.10
2023-05-13T04:15:44.584Z,14.70
2023-05-13T04:18:12.355Z,12.30
2023-05-13T04:20:41.017Z,18.50
2023-05-13T04:23:08.811Z,11.80
2023-05-13T04:25:39.851Z,15.20
2023-05-13T04:28:07.703Z,13.80
2023-05-13T04:30:44.722Z,14.50
2023-05-13T04:33:13.042Z,13.10
2023-05-13T04:35:43.832Z,14.30
2023-05-13T04:38:12.581Z,14.70
2023-05-13T04:40:40.555Z,11.70
2023-05-13T04:43:12.441Z,13.10
2023-05-13T04:45:47.816Z,11.80
2023-05-13T04:48:16.674Z,14.50
2023-05-13T04:50:48.418Z,11.90
2023-05-13T04:53:17.427Z,10.30
2023-05-13T04:55:49.892Z,10.00
2023-05-13T04:58:17.708Z,9.10
2023-05-13T05:00:45.850Z,9.50
2023-05-13T05:03:14.557Z,10.70
2023-05-13T05:05:42.517Z,10.10
2023-05-13T05:08:11.276Z,12.60
2023-05-13T05:10:39.045Z,12.20
2023-05-13T05:13:10.269Z,11.60
2023-05-13T05:15:38.343Z,10.50
2023-05-13T05:18:08.097Z,11.10
2023-05-13T05:20:38.452Z,11.90
2023-05-13T05:23:10.499Z,10.00
2023-05-13T05:25:39.130Z,9.20
2023-05-13T05:28:09.401Z,9.70
2023-05-13T05:30:40.093Z,10.20
2023-05-13T05:33:13.229Z,11.00
2023-05-13T05:35:41.705Z,8.40
2023-05-13T05:38:12.589Z,9.40
2023-05-13T05:40:46.217Z,7.80
2023-05-13T05:43:14.994Z,9.10
2023-05-13T05:45:43.820Z,8.50
2023-05-13T05:48:14.521Z,8.30
2023-05-13T05:50:43.517Z,8.10
2023-05-13T05:53:13.840Z,10.70
2023-05-13T05:55:42.456Z,12.00
2023-05-13T05:58:16.394Z,9.70
2023-05-13T06:00:44.648Z,9.30
2023-05-13T06:03:12.802Z,10.40
2023-05-13T06:05:40.828Z,9.40
2023-05-13T06:08:08.568Z,10.20
2023-05-13T06:10:36.448Z,6.50
2023-05-13T06:13:04.818Z,8.50
2023-05-13T06:15:32.712Z,6.80
2023-05-13T06:18:01.748Z,8.90
2023-05-13T06:20:29.671Z,12.20
2023-05-13T06:22:57.894Z,8.30
2023-05-13T06:25:26.743Z,7.80
2023-05-13T06:27:55.061Z,7.80
2023-05-13T06:30:23.634Z,9.10
2023-05-13T06:33:00.997Z,9.40
2023-05-13T06:35:31.525Z,9.30
2023-05-13T06:38:00.190Z,7.90
2023-05-13T06:40:28.478Z,11.20
2023-05-13T06:42:56.686Z,8.70
2023-05-13T06:45:30.229Z,9.70
2023-05-13T06:47:58.208Z,7.90
2023-05-13T06:50:26.092Z,9.40
2023-05-13T06:52:55.094Z,10.60
2023-05-13T06:55:22.909Z,9.70
2023-05-13T06:57:51.269Z,8.80
2023-05-13T07:00:19.400Z,9.20
2023-05-13T07:02:47.387Z,9.70
2023-05-13T07:05:15.405Z,8.50
2023-05-13T07:07:43.458Z,8.60
2023-05-13T07:10:11.372Z,8.00
2023-05-13T07:12:39.419Z,11.70
2023-05-13T07:15:08.490Z,8.20
2023-05-13T07:17:36.444Z,9.70
2023-05-13T07:20:04.602Z,13.40
2023-05-13T07:22:32.959Z,9.60
2023-05-13T07:25:01.257Z,6.60
2023-05-13T07:27:29.023Z,8.10
2023-05-13T07:29:56.748Z,9.90
2023-05-13T07:32:24.525Z,12.40
2023-05-13T07:34:52.340Z,9.00
2023-05-13T07:37:20.263Z,10.30
2023-05-13T07:39:47.968Z,8.20
2023-05-13T07:42:15.809Z,10.00
2023-05-13T07:44:44.048Z,9.40
2023-05-13T07:47:13.623Z,10.40
2023-05-13T07:49:41.707Z,9.50
2023-05-13T07:52:09.546Z,10.80
2023-05-13T07:54:37.312Z,8.70
2023-05-13T07:57:05.304Z,9.70
2023-05-13T07:59:33.148Z,9.60
2023-05-13T08:02:00.937Z,8.30
2023-05-13T08:04:28.731Z,9.40
2023-05-13T08:06:56.589Z,8.90
2023-05-13T08:09:24.554Z,9.70
2023-05-13T08:11:52.336Z,11.90
2023-05-13T08:14:20.964Z,8.00
2023-05-13T08:16:49.021Z,8.90
2023-05-13T08:19:17.521Z,11.80
2023-05-13T08:21:45.493Z,10.20
2023-05-13T08:24:13.287Z,8.10
2023-05-13T08:26:41.030Z,9.40
2023-05-13T08:29:12.950Z,8.50
2023-05-13T08:31:42.167Z,9.70
2023-05-13T08:34:10.100Z,9.90
2023-05-13T08:36:37.866Z,11.70
2023-05-13T08:39:05.760Z,9.40
2023-05-13T08:41:34.715Z,10.30
2023-05-13T08:44:06.901Z,8.90
2023-05-13T08:46:39.018Z,10.80
2023-05-13T08:49:08.063Z,9.70
2023-05-13T08:51:35.898Z,9.60
2023-05-13T08:54:03.856Z,9.80
2023-05-13T08:56:31.711Z,8.20
2023-05-13T08:58:59.544Z,10.00
2023-05-13T09:01:28.892Z,8.70
2023-05-13T09:04:06.306Z,8.20
2023-05-13T09:06:34.637Z,10.10
2023-05-13T09:09:03.067Z,8.10
2023-05-13T09:11:31.019Z,8.30
2023-05-13T09:14:01.434Z,10.60
2023-05-13T09:16:30.396Z,10.50
2023-05-13T09:19:05.794Z,10.90
2023-05-13T09:21:36.524Z,9.50
2023-05-13T09:24:11.770Z,12.40
2023-05-13T09:26:42.276Z,11.10
2023-05-13T09:29:30.386Z,10.20
2023-05-13T09:32:01.519Z,12.00
2023-05-13T09:34:34.744Z,12.10
2023-05-13T09:37:06.464Z,11.10
2023-05-13T09:39:41.168Z,11.90
2023-05-13T09:42:17.227Z,12.60
2023-05-13T09:44:46.818Z,10.70
2023-05-13T09:47:16.050Z,11.10
2023-05-13T09:49:53.081Z,9.40
2023-05-13T09:52:22.339Z,13.70
2023-05-13T09:54:50.139Z,11.10
2023-05-13T09:57:17.920Z,8.10
2023-05-13T09:59:45.692Z,9.60
2023-05-13T10:02:17.928Z,10.60
2023-05-13T10:04:46.116Z,10.30
2023-05-13T10:07:14.752Z,11.00
2023-05-13T10:09:46.242Z,10.60
2023-05-13T10:12:15.349Z,10.20
2023-05-13T10:14:44.158Z,10.30
2023-05-13T10:17:13.548Z,9.30
2023-05-13T10:19:42.369Z,9.90
2023-05-13T10:22:11.890Z,10.60
2023-05-13T10:24:41.669Z,10.30
2023-05-13T10:27:12.035Z,10.60
2023-05-13T10:29:40.728Z,11.30
2023-05-13T10:32:09.818Z,9.00
2023-05-13T10:34:39.935Z,10.60
2023-05-13T10:37:42.528Z,10.90
2023-05-13T10:40:38.361Z,11.60
2023-05-13T10:43:18.708Z,11.00
2023-05-13T10:46:07.857Z,8.80
2023-05-13T10:48:51.586Z,9.80
2023-05-13T10:51:24.567Z,11.90
2023-05-13T10:53:57.914Z,10.70
2023-05-13T10:56:28.614Z,10.20
2023-05-13T10:59:06.360Z,11.10
2023-05-13T11:01:43.887Z,13.50
2023-05-13T11:04:15.701Z,9.80
2023-05-13T11:06:46.493Z,11.20
2023-05-13T11:09:20.425Z,12.00
2023-05-13T11:11:53.324Z,10.80
2023-05-13T11:14:26.896Z,14.40
2023-05-13T11:17:20.075Z,11.40
2023-05-13T11:19:51.548Z,13.70
2023-05-13T11:22:24.317Z,11.00
2023-05-13T11:25:10.510Z,13.70
2023-05-13T11:27:42.926Z,11.00
2023-05-13T11:30:23.816Z,12.80
2023-05-13T11:32:58.309Z,14.80
2023-05-13T11:35:32.603Z,11.50
2023-05-13T11:38:03.560Z,12.90
2023-05-13T11:40:34.825Z,11.40
2023-05-13T11:43:05.131Z,12.40
2023-05-13T11:45:33.982Z,14.30
2023-05-13T11:48:22.557Z,12.50
2023-05-13T11:50:52.816Z,10.40
2023-05-13T11:53:22.684Z,11.70
2023-05-13T11:55:51.517Z,12.10
2023-05-13T11:58:21.548Z,11.80
2023-05-13T12:00:49.302Z,14.50
2023-05-13T12:03:17.109Z,10.80
2023-05-13T12:05:45.017Z,13.20
2023-05-13T12:08:13.396Z,10.10
2023-05-13T12:10:45.605Z,15.40
2023-05-13T12:13:13.879Z,13.40
2023-05-13T12:15:42.743Z,11.80
2023-05-13T12:18:10.918Z,11.60
2023-05-13T12:20:38.740Z,11.60
2023-05-13T12:23:06.643Z,12.40
2023-05-13T12:25:46.989Z,14.60
2023-05-13T12:28:26.026Z,12.20
2023-05-13T12:30:58.673Z,12.80
2023-05-13T12:33:30.020Z,11.60
2023-05-13T12:36:36.307Z,11.50
2023-05-13T12:39:09.106Z,12.30
2023-05-13T12:41:42.470Z,12.70
2023-05-13T12:44:14.877Z,13.50
2023-05-13T12:46:54.907Z,11.20
2023-05-13T12:49:23.218Z,11.50
2023-05-13T12:51:55.710Z,12.20
2023-05-13T12:54:23.570Z,11.60
2023-05-13T12:56:52.586Z,11.00
2023-05-13T12:59:20.390Z,10.20
2023-05-13T13:01:49.963Z,9.70
2023-05-13T13:04:19.148Z,10.50
2023-05-13T13:06:47.179Z,10.90
2023-05-13T13:09:14.931Z,9.70
2023-05-13T13:11:42.699Z,10.20
2023-05-13T13:14:10.476Z,10.50
2023-05-13T13:16:38.442Z,11.60
2023-05-13T13:19:06.503Z,13.50
2023-05-13T13:21:34.315Z,11.30
2023-05-13T13:24:02.058Z,9.40
2023-05-13T13:26:29.846Z,10.60
2023-05-13T13:28:57.575Z,10.40
2023-05-13T13:31:25.396Z,10.50
2023-05-13T13:33:54.001Z,11.50
2023-05-13T13:36:21.856Z,13.50
2023-05-13T13:38:49.585Z,10.60
2023-05-13T13:41:17.304Z,10.70
2023-05-13T13:43:45.060Z,12.30
2023-05-13T13:46:12.890Z,13.40
2023-05-13T13:48:40.990Z,14.70
2023-05-13T13:51:08.874Z,12.70
2023-05-13T13:53:36.604Z,12.00
2023-05-13T13:56:04.572Z,11.70
2023-05-13T13:58:32.367Z,12.70
2023-05-13T14:01:00.142Z,12.00
2023-05-13T14:03:28.269Z,10.80
2023-05-13T14:05:56.602Z,12.60
2023-05-13T14:08:24.614Z,13.00
2023-05-13T14:10:52.556Z,12.10
2023-05-13T14:13:20.598Z,13.60
2023-05-13T14:15:48.401Z,12.70
2023-05-13T14:18:16.190Z,13.60
2023-05-13T14:20:44.243Z,12.80
2023-05-13T14:23:12.203Z,11.70
2023-05-13T14:25:40.022Z,12.60
2023-05-13T14:28:07.853Z,13.40
2023-05-13T14:30:35.617Z,14.90
2023-05-13T14:33:03.687Z,15.00
2023-05-13T14:35:31.538Z,14.00
2023-05-13T14:37:59.249Z,14.60
2023-05-13T14:40:26.978Z,12.40
2023-05-13T14:42:54.880Z,13.80
2023-05-13T14:45:22.797Z,14.20
2023-05-13T14:47:53.698Z,15.00
2023-05-13T14:52:50.364Z,14.70
2023-05-13T14:55:18.194Z,14.60
2023-05-13T14:57:46.032Z,14.70
2023-05-13T15:00:14.714Z,19.90
2023-05-13T15:02:42.573Z,15.30
2023-05-13T15:05:11.292Z,15.60
2023-05-13T15:07:39.270Z,15.80
2023-05-13T15:10:08.271Z,15.00
2023-05-13T15:12:36.035Z,16.20
2023-05-13T15:15:04.707Z,17.40
2023-05-13T15:17:32.678Z,16.60
2023-05-13T15:20:00.469Z,15.40
2023-05-13T15:22:28.237Z,18.70
2023-05-13T15:24:55.960Z,18.40
2023-05-13T15:27:23.803Z,17.70
2023-05-13T15:29:51.521Z,19.00
2023-05-13T15:32:19.317Z,19.70
2023-05-13T15:34:47.065Z,17.40
2023-05-13T15:37:14.862Z,15.40
2023-05-13T15:39:42.622Z,17.30
2023-05-13T15:42:10.459Z,18.80
2023-05-13T15:44:38.268Z,19.10
2023-05-13T15:47:06.883Z,20.00
2023-05-13T15:49:34.817Z,19.20
2023-05-13T15:52:06.244Z,19.20
2023-05-13T15:54:34.744Z,17.20
2023-05-13T15:57:02.578Z,17.60
2023-05-13T15:59:30.340Z,16.50
2023-05-13T16:01:58.208Z,18.50
2023-05-13T16:04:26.467Z,17.20
2023-05-13T16:06:54.349Z,17.50
2023-05-13T16:09:22.135Z,17.90
2023-05-13T16:11:50.268Z,18.70
2023-05-13T16:14:19.408Z,17.20
2023-05-13T16:16:47.500Z,16.80
2023-05-13T16:19:15.517Z,16.50
2023-05-13T16:21:43.639Z,17.20
2023-05-13T16:24:11.447Z,18.50
2023-05-13T16:26:39.246Z,16.20
2023-05-13T16:29:07.063Z,15.90
2023-05-13T16:31:34.897Z,18.60
2023-05-13T16:34:03.030Z,20.40
2023-05-13T16:36:31.119Z,18.80
2023-05-13T16:38:59.057Z,21.50
2023-05-13T16:41:26.884Z,20.70
2023-05-13T16:43:54.663Z,17.60
2023-05-13T16:46:22.668Z,19.60
2023-05-13T16:48:50.949Z,18.60
2023-05-13T16:51:18.848Z,21.10
2023-05-13T16:53:46.595Z,17.00
2023-05-13T16:56:14.355Z,18.90
2023-05-13T16:58:42.091Z,19.10
2023-05-13T17:01:09.984Z,18.70
2023-05-13T17:03:37.849Z,19.50
2023-05-13T17:06:07.687Z,19.70
2023-05-13T17:08:35.659Z,20.60
2023-05-13T17:11:03.706Z,23.40
2023-05-13T17:13:31.653Z,20.20
2023-05-13T17:15:59.394Z,21.30
2023-05-13T17:18:27.239Z,21.30
2023-05-13T17:20:55.136Z,25.50
2023-05-13T17:23:22.956Z,23.40
2023-05-13T17:25:51.010Z,24.50
2023-05-13T17:28:18.769Z,26.30
2023-05-13T17:30:46.631Z,28.60
2023-05-13T17:33:14.479Z,26.60
2023-05-13T17:35:42.245Z,23.50
2023-05-13T17:38:10.045Z,22.40
2023-05-13T17:40:37.832Z,21.10
2023-05-13T17:43:05.802Z,28.70
2023-05-13T17:45:35.790Z,20.40
2023-05-13T17:48:04.494Z,23.90
2023-05-13T17:50:32.374Z,24.60
2023-05-13T17:53:00.821Z,21.30
2023-05-13T17:55:28.790Z,23.20
2023-05-13T17:57:57.113Z,23.20
2023-05-13T18:00:25.937Z,24.80
2023-05-13T18:02:54.108Z,23.40
2023-05-13T18:05:23.863Z,20.90
2023-05-13T18:07:52.385Z,22.00
2023-05-13T18:10:21.815Z,20.00
2023-05-13T18:12:51.895Z,20.90
2023-05-13T18:15:22.911Z,20.80
2023-05-13T18:17:51.214Z,21.40
2023-05-13T18:20:19.809Z,21.50
2023-05-13T18:22:47.646Z,18.00
2023-05-13T18:25:15.749Z,22.50
2023-05-13T18:27:43.489Z,20.30
2023-05-13T18:30:12.423Z,24.50
2023-05-13T18:32:40.179Z,19.80
2023-05-13T18:35:08.806Z,19.00
2023-05-13T18:37:37.002Z,18.90
2023-05-13T18:40:06.024Z,20.90
2023-05-13T18:42:33.800Z,19.00
2023-05-13T18:45:01.534Z,18.40
2023-05-13T18:47:29.363Z,22.10
2023-05-13T18:49:57.419Z,20.40
2023-05-13T18:52:26.165Z,19.50
2023-05-13T18:54:53.982Z,18.80
2023-05-13T18:57:23.728Z,21.10
2023-05-13T18:59:51.792Z,19.60
2023-05-13T19:02:19.728Z,21.30
2023-05-13T19:04:47.779Z,19.90
2023-05-13T19:07:15.559Z,19.10
2023-05-13T19:09:43.330Z,21.30
2023-05-13T19:12:11.509Z,22.50
2023-05-13T19:14:39.253Z,19.90
2023-05-13T19:17:07.276Z,20.60
2023-05-13T19:19:35.144Z,20.10
2023-05-13T19:22:03.108Z,19.20
2023-05-13T19:24:30.980Z,14.20
2023-05-13T19:26:58.941Z,17.60
2023-05-13T19:29:26.765Z,14.20
2023-05-13T19:31:54.589Z,16.40
2023-05-13T19:34:22.432Z,16.40
2023-05-13T19:36:50.388Z,16.40
2023-05-13T19:39:18.207Z,19.40
2023-05-13T19:41:47.941Z,16.70
2023-05-13T19:44:15.798Z,17.30
2023-05-13T19:46:43.671Z,15.90
2023-05-13T19:49:11.585Z,19.60
2023-05-13T19:51:39.707Z,17.70
2023-05-13T19:54:09.719Z,16.90
2023-05-13T19:56:38.372Z,19.80
2023-05-13T19:59:06.233Z,19.60
2023-05-13T20:01:34.642Z,19.20
2023-05-13T20:04:02.540Z,18.50
2023-05-13T20:06:30.962Z,19.50
2023-05-13T20:08:59.475Z,16.60
2023-05-13T20:11:28.088Z,17.30
2023-05-13T20:13:56.104Z,21.30
2023-05-13T20:16:23.931Z,15.80
2023-05-13T20:18:51.768Z,21.40
2023-05-13T20:21:19.673Z,19.10
2023-05-13T20:23:47.646Z,18.30
2023-05-13T20:26:15.421Z,18.20
2023-05-13T20:28:45.197Z,19.20
2023-05-13T20:31:12.977Z,19.10
2023-05-13T20:33:40.928Z,19.00
2023-05-13T20:36:08.710Z,18.80
2023-05-13T20:38:36.561Z,22.30
2023-05-13T20:41:04.335Z,18.30
2023-05-13T20:43:37.116Z,17.40
2023-05-13T20:46:07.007Z,19.60
2023-05-13T20:48:35.477Z,18.70
2023-05-13T20:51:06.019Z,20.80
2023-05-13T20:53:37.257Z,20.30
2023-05-13T20:56:09.851Z,19.80
2023-05-13T20:58:37.674Z,22.30
2023-05-13T21:01:05.530Z,19.40
2023-05-13T21:03:33.486Z,25.00
2023-05-13T21:06:01.429Z,24.80
2023-05-13T21:08:29.304Z,27.10
2023-05-13T21:10:57.466Z,27.00
2023-05-13T21:13:26.012Z,27.40
2023-05-13T21:15:53.913Z,24.80
2023-05-13T21:18:22.008Z,28.00
2023-05-13T21:20:50.168Z,28.40
2023-05-13T21:23:19.390Z,23.70
2023-05-13T21:25:48.235Z,23.10
2023-05-13T21:28:18.543Z,21.70
2023-05-13T21:30:46.429Z,20.60
2023-05-13T21:33:14.426Z,19.30
2023-05-13T21:35:42.193Z,20.30
2023-05-13T21:38:12.385Z,21.20
2023-05-13T21:40:40.898Z,19.80
2023-05-13T21:43:08.973Z,18.50
2023-05-13T21:45:37.352Z,19.70
2023-05-13T21:48:06.755Z,18.40
2023-05-13T21:50:35.431Z,19.00
2023-05-13T21:53:04.518Z,18.30
2023-05-13T21:55:35.030Z,17.90
2023-05-13T21:58:03.241Z,20.60
2023-05-13T22:00:31.799Z,17.90
2023-05-13T22:03:01.482Z,18.20
2023-05-13T22:05:29.427Z,18.90
2023-05-13T22:07:57.440Z,20.40
2023-05-13T22:10:26.841Z,19.80
2023-05-13T22:12:55.854Z,21.40
2023-05-13T22:15:23.648Z,18.00
2023-05-13T22:17:52.152Z,18.60
2023-05-13T22:20:20.233Z,19.70
2023-05-13T22:22:48.129Z,17.80
2023-05-13T22:25:15.981Z,17.50
2023-05-13T22:27:43.825Z,16.70
2023-05-13T22:30:11.985Z,17.00
2023-05-13T22:32:40.200Z,17.20
2023-05-13T22:35:09.304Z,19.90
2023-05-13T22:37:37.018Z,19.70
2023-05-13T22:40:06.503Z,18.20
2023-05-13T22:42:34.272Z,18.00
2023-05-13T22:45:02.089Z,16.70
2023-05-13T22:47:29.941Z,15.70
2023-05-13T22:49:57.680Z,16.80
2023-05-13T22:52:25.483Z,20.80
2023-05-13T22:54:53.352Z,15.20
2023-05-13T22:57:22.005Z,16.60
2023-05-13T22:59:49.858Z,19.10
2023-05-13T23:02:17.673Z,17.50
2023-05-13T23:04:45.434Z,17.80
2023-05-13T23:07:13.282Z,17.20
2023-05-13T23:09:41.229Z,15.00
2023-05-13T23:12:09.042Z,18.10
2023-05-13T23:14:36.842Z,17.90
2023-05-13T23:17:04.782Z,15.50
2023-05-13T23:19:33.042Z,17.20
2023-05-13T23:22:01.048Z,19.10
2023-05-13T23:24:28.855Z,20.70
2023-05-13T23:26:56.702Z,19.10
2023-05-13T23:29:27.623Z,16.50
2023-05-13T23:31:56.109Z,17.20
2023-05-13T23:34:24.102Z,21.80
2023-05-13T23:36:51.936Z,17.40
2023-05-13T23:39:20.142Z,19.00
2023-05-13T23:41:48.190Z,17.00
2023-05-13T23:44:16.043Z,18.50
2023-05-13T23:46:43.798Z,18.70
2023-05-13T23:49:11.633Z,17.30
2023-05-13T23:51:39.371Z,19.20
2023-05-13T23:54:08.300Z,17.80
2023-05-13T23:56:36.131Z,17.50
2023-05-13T23:59:03.955Z,17.70
